createdAt,value
2023-01-22T00:01:30.738Z,770.89
2023-01-22T00:04:37.643Z,782.10
2023-01-22T00:07:44.673Z,782.22
2023-01-22T00:10:54.536Z,796.35
2023-01-22T00:14:01.638Z,785.19
2023-01-22T00:17:10.644Z,791.90
2023-01-22T00:20:18.132Z,788.41
2023-01-22T00:23:25.175Z,786.57
2023-01-22T00:26:32.364Z,794.65
2023-01-22T00:29:38.518Z,793.75
2023-01-22T00:32:49.214Z,805.54
2023-01-22T00:35:55.429Z,806.11
2023-01-22T00:39:02.411Z,774.67
2023-01-22T00:42:08.742Z,790.70
2023-01-22T00:45:17.992Z,778.00
2023-01-22T00:48:26.890Z,785.00
2023-01-22T00:51:34.083Z,768.84
2023-01-22T00:54:40.208Z,749.79
2023-01-22T00:57:47.339Z,723.54
2023-01-22T01:00:54.353Z,714.33
2023-01-22T01:04:03.993Z,687.11
2023-01-22T01:07:11.818Z,677.56
2023-01-22T01:10:19.649Z,674.71
2023-01-22T01:13:26.359Z,656.01
2023-01-22T01:16:35.554Z,636.22
2023-01-22T01:19:44.551Z,645.19
2023-01-22T01:22:51.719Z,613.41
2023-01-22T01:25:58.360Z,603.69
2023-01-22T01:29:06.605Z,570.87
2023-01-22T01:32:12.659Z,567.74
2023-01-22T01:35:24.282Z,569.42
2023-01-22T01:38:30.571Z,571.69
2023-01-22T01:41:37.395Z,547.40
2023-01-22T01:44:46.251Z,555.66
2023-01-22T01:48:05.319Z,554.47
2023-01-22T01:51:21.137Z,526.66
2023-01-22T01:54:30.844Z,497.95
2023-01-22T01:57:38.976Z,518.76
2023-01-22T02:00:50.188Z,499.72
2023-01-22T02:03:57.324Z,478.03
2023-01-22T02:07:09.070Z,473.65
2023-01-22T02:10:15.496Z,474.59
2023-01-22T02:13:30.196Z,460.80
2023-01-22T02:16:38.437Z,466.01
2023-01-22T02:19:46.986Z,438.18
2023-01-22T02:22:55.997Z,439.74
2023-01-22T02:26:03.956Z,427.30
2023-01-22T02:29:11.845Z,424.32
2023-01-22T02:32:19.001Z,402.66
2023-01-22T02:35:30.042Z,386.12
2023-01-22T02:38:38.752Z,387.76
2023-01-22T02:41:45.803Z,389.31
2023-01-22T02:44:53.689Z,379.25
2023-01-22T02:48:00.599Z,391.68
2023-01-22T02:51:08.473Z,404.32
2023-01-22T02:54:18.215Z,419.09
2023-01-22T02:57:24.330Z,385.90
2023-01-22T03:00:31.201Z,368.09
2023-01-22T03:03:37.228Z,359.63
2023-01-22T03:06:48.433Z,337.34
2023-01-22T03:09:57.085Z,327.31
2023-01-22T03:13:16.353Z,305.63
2023-01-22T03:16:35.028Z,315.10
2023-01-22T03:19:54.370Z,309.01
2023-01-22T03:23:00.607Z,291.31
2023-01-22T03:26:11.434Z,292.64
2023-01-22T03:29:17.652Z,290.42
2023-01-22T03:32:25.406Z,292.68
2023-01-22T03:35:34.781Z,275.36
2023-01-22T03:38:52.645Z,256.66
2023-01-22T03:42:05.666Z,262.23
2023-01-22T03:45:14.090Z,244.02
2023-01-22T03:48:20.336Z,245.87
2023-01-22T03:51:28.564Z,247.77
2023-01-22T03:54:35.728Z,240.26
2023-01-22T03:57:46.665Z,231.92
2023-01-22T04:00:57.775Z,231.45
2023-01-22T04:04:05.032Z,226.42
2023-01-22T04:07:11.719Z,222.47
2023-01-22T04:10:21.511Z,219.85
2023-01-22T04:13:33.937Z,229.03
2023-01-22T04:16:41.749Z,212.76
2023-01-22T04:20:07.467Z,209.35
2023-01-22T04:23:43.521Z,198.98
2023-01-22T04:26:49.862Z,199.05
2023-01-22T04:30:02.132Z,201.89
2023-01-22T04:33:08.946Z,195.07
2023-01-22T04:36:36.619Z,198.54
2023-01-22T04:39:42.677Z,192.81
2023-01-22T04:42:50.233Z,180.37
2023-01-22T04:45:58.889Z,181.61
2023-01-22T04:49:10.228Z,174.75
2023-01-22T04:52:17.907Z,170.30
2023-01-22T04:55:26.229Z,163.82
2023-01-22T04:58:39.164Z,163.07
2023-01-22T05:01:50.830Z,160.11
2023-01-22T05:04:58.432Z,163.89
2023-01-22T05:08:05.496Z,158.87
2023-01-22T05:11:14.563Z,152.06
2023-01-22T05:14:32.703Z,150.71
2023-01-22T05:17:43.240Z,144.52
2023-01-22T05:20:50.095Z,134.72
2023-01-22T05:23:57.661Z,141.71
2023-01-22T05:27:08.457Z,143.89
2023-01-22T05:30:23.991Z,147.58
2023-01-22T05:33:53.761Z,147.27
2023-01-22T05:37:01.593Z,149.77
2023-01-22T05:40:14.037Z,158.44
2023-01-22T05:43:21.983Z,159.40
2023-01-22T05:46:35.704Z,157.50
2023-01-22T05:49:55.942Z,148.41
2023-01-22T05:53:03.019Z,157.26
2023-01-22T05:56:10.531Z,162.62
2023-01-22T05:59:19.808Z,185.99
2023-01-22T06:02:33.494Z,217.29
2023-01-22T06:05:44.124Z,192.20
2023-01-22T06:08:54.340Z,158.85
2023-01-22T06:12:02.931Z,156.54
2023-01-22T06:15:12.001Z,149.58
2023-01-22T06:18:24.655Z,148.27
2023-01-22T06:21:33.359Z,153.71
2023-01-22T06:24:40.476Z,145.99
2023-01-22T06:27:49.531Z,146.73
2023-01-22T06:31:05.644Z,145.59
2023-01-22T06:34:12.604Z,144.91
2023-01-22T06:37:23.123Z,141.76
2023-01-22T06:40:31.058Z,139.69
2023-01-22T06:43:38.076Z,140.80
2023-01-22T06:46:44.133Z,137.13
2023-01-22T06:49:58.329Z,146.49
2023-01-22T06:53:07.488Z,146.49
2023-01-22T06:56:14.566Z,153.00
2023-01-22T06:59:20.784Z,158.73
2023-01-22T07:02:27.904Z,155.16
2023-01-22T07:05:33.937Z,152.60
2023-01-22T07:08:44.023Z,163.07
2023-01-22T07:11:50.319Z,172.22
2023-01-22T07:14:57.363Z,174.72
2023-01-22T07:18:03.575Z,175.66
2023-01-22T07:21:10.745Z,171.94
2023-01-22T07:24:20.416Z,167.29
2023-01-22T07:27:27.542Z,178.80
2023-01-22T07:30:34.723Z,178.67
2023-01-22T07:33:41.788Z,180.82
2023-01-22T07:36:49.905Z,189.65
2023-01-22T07:39:59.443Z,190.02
2023-01-22T07:43:10.830Z,178.91
2023-01-22T07:46:17.710Z,183.15
2023-01-22T07:49:24.188Z,192.81
2023-01-22T07:52:31.185Z,186.80
2023-01-22T07:55:39.910Z,205.92
2023-01-22T07:58:46.911Z,215.88
2023-01-22T08:01:53.073Z,219.64
2023-01-22T08:05:00.039Z,220.57
2023-01-22T08:08:06.252Z,225.46
2023-01-22T08:11:16.144Z,227.03
2023-01-22T08:14:23.255Z,213.25
2023-01-22T08:17:30.252Z,207.83
2023-01-22T08:20:36.804Z,219.55
2023-01-22T08:23:47.523Z,236.54
2023-01-22T08:26:58.568Z,224.33
2023-01-22T08:30:06.123Z,233.01
2023-01-22T08:33:12.255Z,246.02
2023-01-22T08:36:19.184Z,238.21
2023-01-22T08:39:27.393Z,229.89
2023-01-22T08:42:37.257Z,218.68
2023-01-22T08:45:43.297Z,208.53
2023-01-22T08:48:51.016Z,212.89
2023-01-22T08:51:57.271Z,227.28
2023-01-22T08:55:05.567Z,230.98
2023-01-22T08:58:15.319Z,237.14
2023-01-22T09:01:24.314Z,226.27
2023-01-22T09:04:31.666Z,232.40
2023-01-22T09:07:38.654Z,228.53
2023-01-22T09:10:46.251Z,247.45
2023-01-22T09:13:57.322Z,248.48
2023-01-22T09:17:03.371Z,249.05
2023-01-22T09:20:11.609Z,255.41
2023-01-22T09:23:17.773Z,242.51
2023-01-22T09:26:24.866Z,248.19
2023-01-22T09:29:33.555Z,249.91
2023-01-22T09:32:41.580Z,250.50
2023-01-22T09:35:47.991Z,254.04
2023-01-22T09:38:55.407Z,245.23
2023-01-22T09:42:07.241Z,250.67
2023-01-22T09:45:26.016Z,256.72
2023-01-22T09:48:43.862Z,269.97
2023-01-22T09:51:58.536Z,251.37
2023-01-22T09:55:04.824Z,253.88
2023-01-22T09:58:19.376Z,259.43
2023-01-22T10:01:30.421Z,264.11
2023-01-22T10:04:45.784Z,272.96
2023-01-22T10:08:03.619Z,289.70
2023-01-22T10:11:13.462Z,272.15
2023-01-22T10:14:25.421Z,273.60
2023-01-22T10:17:42.244Z,266.99
2023-01-22T10:20:49.040Z,251.38
2023-01-22T10:23:58.453Z,231.63
2023-01-22T10:27:16.856Z,227.44
2023-01-22T10:30:28.970Z,224.78
2023-01-22T10:33:44.808Z,237.69
2023-01-22T10:36:56.584Z,245.32
2023-01-22T10:40:08.537Z,238.37
2023-01-22T10:43:20.073Z,210.24
2023-01-22T10:46:29.029Z,194.70
2023-01-22T10:49:38.792Z,215.76
2023-01-22T10:52:51.811Z,203.75
2023-01-22T10:56:03.884Z,198.77
2023-01-22T10:59:27.772Z,217.57
2023-01-22T11:02:38.919Z,212.11
2023-01-22T11:05:53.989Z,206.90
2023-01-22T11:09:11.126Z,221.81
2023-01-22T11:12:27.715Z,222.65
2023-01-22T11:15:46.117Z,223.16
2023-01-22T11:19:01.113Z,219.75
2023-01-22T11:22:28.244Z,218.88
2023-01-22T11:25:46.900Z,224.41
2023-01-22T11:29:11.211Z,213.21
2023-01-22T11:32:47.694Z,231.95
2023-01-22T11:36:09.467Z,219.42
2023-01-22T11:39:45.374Z,233.79
2023-01-22T11:43:33.142Z,211.28
2023-01-22T11:47:06.095Z,214.06
2023-01-22T11:50:31.271Z,231.48
2023-01-22T11:54:15.403Z,244.59
2023-01-22T11:57:37.312Z,287.95
2023-01-22T12:00:54.947Z,271.19
2023-01-22T12:04:37.772Z,257.00
2023-01-22T12:08:13.036Z,231.89
2023-01-22T12:11:51.210Z,224.05
2023-01-22T12:15:22.695Z,282.79
2023-01-22T12:19:14.343Z,232.28
2023-01-22T12:22:35.168Z,268.48
2023-01-22T12:25:56.113Z,271.33
2023-01-22T12:29:17.528Z,273.13
2023-01-22T12:32:33.723Z,299.84
2023-01-22T12:35:40.014Z,275.98
2023-01-22T12:38:57.651Z,285.06
2023-01-22T12:42:26.248Z,285.91
2023-01-22T12:45:48.219Z,273.24
2023-01-22T12:49:09.102Z,273.41
2023-01-22T12:52:33.541Z,298.92
2023-01-22T12:55:44.402Z,294.60
2023-01-22T12:59:00.800Z,320.50
2023-01-22T13:02:23.645Z,338.48
2023-01-22T13:05:47.338Z,342.41
2023-01-22T13:08:53.408Z,291.67
2023-01-22T13:12:12.388Z,299.44
2023-01-22T13:15:25.706Z,311.00
2023-01-22T13:18:38.063Z,316.94
2023-01-22T13:21:48.947Z,342.87
2023-01-22T13:24:58.759Z,386.97
2023-01-22T13:28:06.327Z,383.03
2023-01-22T13:31:21.028Z,390.93
2023-01-22T13:34:31.253Z,412.99
2023-01-22T13:37:42.096Z,501.43
2023-01-22T13:40:51.798Z,771.38
2023-01-22T13:44:00.455Z,1213.51
2023-01-22T13:47:08.546Z,644.68
2023-01-22T13:50:25.537Z,447.63
2023-01-22T13:53:42.251Z,414.20
2023-01-22T13:56:49.530Z,400.81
2023-01-22T13:59:57.054Z,401.23
2023-01-22T14:03:05.111Z,379.58
2023-01-22T14:06:15.333Z,384.23
2023-01-22T14:09:34.261Z,424.17
2023-01-22T14:12:40.431Z,486.75
2023-01-22T14:16:01.774Z,413.65
2023-01-22T14:19:07.813Z,403.68
2023-01-22T14:22:14.711Z,354.23
2023-01-22T14:25:23.544Z,377.82
2023-01-22T14:28:34.281Z,377.55
2023-01-22T14:31:42.804Z,459.11
2023-01-22T14:34:49.739Z,462.46
2023-01-22T14:37:58.007Z,442.45
2023-01-22T14:41:10.768Z,386.56
2023-01-22T14:44:16.799Z,341.96
2023-01-22T14:47:23.698Z,344.87
2023-01-22T14:50:30.785Z,348.11
2023-01-22T14:53:37.649Z,362.88
2023-01-22T14:56:46.365Z,374.05
2023-01-22T14:59:53.444Z,392.53
2023-01-22T15:03:01.186Z,403.61
2023-01-22T15:06:08.707Z,401.18
2023-01-22T15:09:15.036Z,369.78
2023-01-22T15:12:24.551Z,377.77
2023-01-22T15:15:31.038Z,423.56
2023-01-22T15:18:38.362Z,404.26
2023-01-22T15:21:44.539Z,422.25
2023-01-22T15:24:51.624Z,391.52
2023-01-22T15:28:00.381Z,395.84
2023-01-22T15:31:08.816Z,543.84
2023-01-22T15:34:15.024Z,456.41
2023-01-22T15:37:22.087Z,370.95
2023-01-22T15:40:28.236Z,377.38
2023-01-22T15:43:37.893Z,389.25
2023-01-22T15:46:46.543Z,374.85
2023-01-22T15:49:53.545Z,376.66
2023-01-22T15:53:00.755Z,340.06
2023-01-22T15:56:08.640Z,324.02
2023-01-22T15:59:17.570Z,329.18
2023-01-22T16:02:24.410Z,357.06
2023-01-22T16:05:30.606Z,364.83
2023-01-22T16:08:38.082Z,372.70
2023-01-22T16:11:44.149Z,379.65
2023-01-22T16:14:53.795Z,407.93
2023-01-22T16:18:01.188Z,410.41
2023-01-22T16:21:10.772Z,404.72
2023-01-22T16:24:16.800Z,415.85
2023-01-22T16:27:23.714Z,404.14
2023-01-22T16:30:32.885Z,396.17
2023-01-22T16:33:44.075Z,413.83
2023-01-22T16:36:51.084Z,382.10
2023-01-22T16:39:58.038Z,381.08
2023-01-22T16:43:05.825Z,370.63
2023-01-22T16:46:17.013Z,358.87
2023-01-22T16:49:26.197Z,407.05
2023-01-22T16:52:34.400Z,430.31
2023-01-22T16:55:40.715Z,427.20
2023-01-22T16:58:47.587Z,391.98
2023-01-22T17:01:58.069Z,338.77
2023-01-22T17:05:06.659Z,362.76
2023-01-22T17:08:12.819Z,368.06
2023-01-22T17:11:20.521Z,361.62
2023-01-22T17:14:31.491Z,386.98
2023-01-22T17:17:41.364Z,403.30
2023-01-22T17:21:01.447Z,440.01
2023-01-22T17:24:10.398Z,484.45
2023-01-22T17:27:18.754Z,532.26
2023-01-22T17:30:25.885Z,565.00
2023-01-22T17:33:35.455Z,588.87
2023-01-22T17:36:44.859Z,538.14
2023-01-22T17:39:53.095Z,471.14
2023-01-22T17:43:00.067Z,441.60
2023-01-22T17:46:10.821Z,431.99
2023-01-22T17:49:20.372Z,458.67
2023-01-22T17:52:26.512Z,487.24
2023-01-22T17:55:33.629Z,493.19
2023-01-22T17:58:40.716Z,634.97
2023-01-22T18:01:48.012Z,795.36
2023-01-22T18:04:56.892Z,807.53
2023-01-22T18:08:03.926Z,647.01
2023-01-22T18:11:13.406Z,663.20
2023-01-22T18:14:28.438Z,573.70
2023-01-22T18:17:35.406Z,665.19
2023-01-22T18:20:49.969Z,597.40
2023-01-22T18:23:56.943Z,569.77
2023-01-22T18:27:03.945Z,507.64
2023-01-22T18:30:15.581Z,443.87
2023-01-22T18:33:23.831Z,457.48
2023-01-22T18:36:37.217Z,416.20
2023-01-22T18:39:44.572Z,370.92
2023-01-22T18:42:51.328Z,361.99
2023-01-22T18:45:58.581Z,451.98
2023-01-22T18:49:10.158Z,415.93
2023-01-22T18:52:19.959Z,385.99
2023-01-22T18:55:26.141Z,370.59
2023-01-22T18:58:34.349Z,346.22
2023-01-22T19:01:44.601Z,348.74
2023-01-22T19:04:51.703Z,333.48
2023-01-22T19:08:01.068Z,352.53
2023-01-22T19:11:08.996Z,351.68
2023-01-22T19:14:20.660Z,346.21
2023-01-22T19:17:28.384Z,304.08
2023-01-22T19:20:39.736Z,339.91
2023-01-22T19:23:53.384Z,340.85
2023-01-22T19:27:00.910Z,341.72
2023-01-22T19:30:10.546Z,333.88
2023-01-22T19:33:16.664Z,323.29
2023-01-22T19:36:27.612Z,327.76
2023-01-22T19:39:39.788Z,291.73
2023-01-22T19:42:49.335Z,273.09
2023-01-22T19:45:56.131Z,289.80
2023-01-22T19:49:03.627Z,311.93
2023-01-22T19:52:09.928Z,281.94
2023-01-22T19:55:21.311Z,290.83
2023-01-22T19:58:28.535Z,289.33
2023-01-22T20:01:37.097Z,271.69
2023-01-22T20:04:43.483Z,278.11
2023-01-22T20:07:50.805Z,281.24
2023-01-22T20:11:05.301Z,291.45
2023-01-22T20:14:12.389Z,294.11
2023-01-22T20:17:18.472Z,268.35
2023-01-22T20:20:26.456Z,261.13
2023-01-22T20:23:33.542Z,252.11
2023-01-22T20:26:43.194Z,282.19
2023-01-22T20:29:49.887Z,275.13
2023-01-22T20:32:57.061Z,298.10
2023-01-22T20:36:07.597Z,326.36
2023-01-22T20:39:16.433Z,342.97
2023-01-22T20:42:25.320Z,333.98
2023-01-22T20:45:32.506Z,306.25
2023-01-22T20:48:39.493Z,288.52
2023-01-22T20:51:46.531Z,294.72
2023-01-22T20:55:01.292Z,291.36
2023-01-22T20:58:11.859Z,303.84
2023-01-22T21:01:20.652Z,323.02
2023-01-22T21:04:27.843Z,336.84
2023-01-22T21:07:33.993Z,334.51
2023-01-22T21:10:40.962Z,276.94
2023-01-22T21:13:51.000Z,278.89
2023-01-22T21:16:58.008Z,277.95
2023-01-22T21:20:04.228Z,262.14
2023-01-22T21:23:11.131Z,243.47
2023-01-22T21:26:19.505Z,254.12
2023-01-22T21:29:29.137Z,252.86
2023-01-22T21:32:37.554Z,288.30
2023-01-22T21:35:51.326Z,337.27
2023-01-22T21:38:57.487Z,273.48
2023-01-22T21:42:16.753Z,283.24
2023-01-22T21:45:37.804Z,254.75
2023-01-22T21:48:44.732Z,252.66
2023-01-22T21:51:54.137Z,248.67
2023-01-22T21:55:01.209Z,239.78
2023-01-22T21:58:08.991Z,203.44
2023-01-22T22:01:25.302Z,185.06
2023-01-22T22:04:31.608Z,182.56
2023-01-22T22:07:38.566Z,190.62
2023-01-22T22:10:51.488Z,196.80
2023-01-22T22:13:59.392Z,206.19
2023-01-22T22:17:08.315Z,198.26
2023-01-22T22:20:16.240Z,194.72
2023-01-22T22:23:22.726Z,192.84
2023-01-22T22:26:30.588Z,194.13
2023-01-22T22:29:36.713Z,190.33
2023-01-22T22:32:46.260Z,193.74
2023-01-22T22:35:52.311Z,198.43
2023-01-22T22:39:00.637Z,185.93
2023-01-22T22:42:06.958Z,178.26
2023-01-22T22:45:14.341Z,189.68
2023-01-22T22:48:23.129Z,157.80
2023-01-22T22:51:34.401Z,147.56
2023-01-22T22:54:40.470Z,145.75
2023-01-22T22:57:47.308Z,139.51
2023-01-22T23:00:53.714Z,141.96
2023-01-22T23:04:04.357Z,145.23
2023-01-22T23:07:10.469Z,153.11
2023-01-22T23:10:29.070Z,183.91
2023-01-22T23:13:35.804Z,200.58
2023-01-22T23:16:45.785Z,219.45
2023-01-22T23:19:54.703Z,235.92
2023-01-22T23:23:02.258Z,246.70
2023-01-22T23:26:13.799Z,253.89
2023-01-22T23:29:26.890Z,237.40
2023-01-22T23:32:33.278Z,253.21
2023-01-22T23:35:42.928Z,274.35
2023-01-22T23:38:49.453Z,303.21
2023-01-22T23:41:56.409Z,298.29
2023-01-22T23:45:02.505Z,315.95
2023-01-22T23:48:09.828Z,350.15
2023-01-22T23:51:20.629Z,385.76
2023-01-22T23:54:27.646Z,387.02
2023-01-22T23:57:33.675Z,365.30
